Time;durP1;ratioP1;P1;durP2;ratioP2;P2;SDS_P1;SDS_P2;PMS_P1;PMS_P2;Temp;Humidity;BMP_temperature;BMP_pressure;BME280_temperature;BME280_humidity;BME280_pressure;Samples;Min_cycle;Max_cycle;Signal;HPM_P1;HPM_P2
2021/11/25 00:02:16;;;;;;;6.93;3.20;;;5.60;94.10;;;;;;5045352;28;20487;-78
2021/11/25 00:04:44;;;;;;;7.85;3.80;;;5.50;94.10;;;;;;5048202;28;20045;-78
2021/11/25 00:07:11;;;;;;;10.45;3.83;;;5.40;94.10;;;;;;5047200;28;20081;-78
2021/11/25 00:09:38;;;;;;;9.30;4.07;;;5.40;94.10;;;;;;5047283;28;20578;-78
2021/11/25 00:12:05;;;;;;;10.15;4.57;;;5.40;94.20;;;;;;5048373;28;20059;-78
2021/11/25 00:14:36;;;;;;;8.57;3.58;;;5.40;94.20;;;;;;5049106;28;20119;-78
2021/11/25 00:17:03;;;;;;;9.50;3.53;;;5.30;94.20;;;;;;5035099;28;20056;-78
2021/11/25 00:19:30;;;;;;;10.27;3.85;;;5.40;94.20;;;;;;5058308;28;20115;-78
2021/11/25 00:21:57;;;;;;;10.93;3.95;;;5.30;94.10;;;;;;5038356;28;20052;-78
2021/11/25 00:24:24;;;;;;;10.45;3.78;;;5.30;94.10;;;;;;5047407;28;20048;-78
2021/11/25 00:26:51;;;;;;;10.32;4.78;;;5.40;94.10;;;;;;5040841;28;20045;-78
2021/11/25 00:29:19;;;;;;;9.32;3.58;;;5.40;94.20;;;;;;5037296;28;21196;-78
2021/11/25 00:31:47;;;;;;;8.57;3.30;;;5.40;94.10;;;;;;5081929;28;20131;-78
2021/11/25 00:34:15;;;;;;;8.13;4.10;;;5.40;94.10;;;;;;5048980;28;20060;-78
2021/11/25 00:36:42;;;;;;;8.32;4.50;;;5.40;94.10;;;;;;5064737;28;20419;-78
2021/11/25 00:39:09;;;;;;;10.90;3.35;;;5.40;94.40;;;;;;5064664;28;20044;-78
2021/11/25 00:41:36;;;;;;;8.57;3.75;;;5.40;94.10;;;;;;5065410;28;20400;-78
2021/11/25 00:44:03;;;;;;;10.77;5.20;;;5.40;94.10;;;;;;5063859;28;20049;-78
2021/11/25 00:46:31;;;;;;;9.93;4.60;;;5.50;94.10;;;;;;5032033;28;20472;-79
2021/11/25 00:48:58;;;;;;;8.75;3.55;;;5.50;94.10;;;;;;5015316;28;20048;-79
2021/11/25 00:51:25;;;;;;;8.10;3.22;;;5.50;94.10;;;;;;5049369;28;20044;-78
2021/11/25 00:53:52;;;;;;;7.75;3.42;;;5.50;94.00;;;;;;5050494;28;20037;-79
2021/11/25 00:56:19;;;;;;;9.27;3.42;;;5.50;94.00;;;;;;5050963;28;20036;-79
2021/11/25 00:58:46;;;;;;;7.88;2.90;;;5.50;94.10;;;;;;5052068;28;20052;-78
2021/11/25 01:01:14;;;;;;;9.35;3.83;;;5.50;94.00;;;;;;5051117;28;20063;-78
2021/11/25 01:03:41;;;;;;;9.70;4.10;;;5.50;94.00;;;;;;5050184;28;20080;-78
2021/11/25 01:06:08;;;;;;;7.70;3.83;;;5.50;94.00;;;;;;5032107;28;20152;-79
2021/11/25 01:08:35;;;;;;;8.18;3.10;;;5.40;94.00;;;;;;5030656;28;20048;-79
2021/11/25 01:11:04;;;;;;;8.30;3.28;;;5.40;94.00;;;;;;5047598;28;20055;-78
2021/11/25 01:13:31;;;;;;;7.72;3.10;;;5.40;94.00;;;;;;5041809;28;20040;-79
2021/11/25 01:15:59;;;;;;;8.35;3.40;;;5.40;94.00;;;;;;5064299;28;20037;-79
2021/11/25 01:18:26;;;;;;;8.40;3.67;;;5.30;94.00;;;;;;5046560;28;20566;-79
2021/11/25 01:20:53;;;;;;;7.85;3.20;;;5.30;94.00;;;;;;5048446;28;20040;-79
2021/11/25 01:23:26;;;;;;;9.52;4.38;;;5.30;94.10;;;;;;5067809;28;20059;-78
2021/11/25 01:25:55;;;;;;;7.70;2.80;;;5.30;94.10;;;;;;5085383;28;20405;-79
2021/11/25 01:28:25;;;;;;;9.52;3.60;;;5.20;94.10;;;;;;5067944;28;20132;-79
2021/11/25 01:30:55;;;;;;;7.70;3.58;;;5.20;94.10;;;;;;5070000;28;20131;-79
2021/11/25 01:33:24;;;;;;;8.40;4.32;;;5.20;94.10;;;;;;5068461;28;20060;-78
2021/11/25 01:35:55;;;;;;;10.18;4.88;;;5.20;94.20;;;;;;5069418;28;20139;-79
2021/11/25 01:38:22;;;;;;;10.23;4.57;;;5.20;94.20;;;;;;5034678;28;20134;-79
2021/11/25 01:40:50;;;;;;;12.75;5.38;;;5.20;94.10;;;;;;5049939;28;20044;-78
2021/11/25 01:43:21;;;;;;;10.30;4.80;;;5.20;94.10;;;;;;5050069;28;20049;-79
2021/11/25 01:45:57;;;;;;;10.07;3.95;;;5.20;94.10;;;;;;5067282;28;20052;-79
2021/11/25 01:48:25;;;;;;;10.57;4.63;;;5.30;94.10;;;;;;5067639;28;20052;-79
2021/11/25 01:50:52;;;;;;;11.43;5.30;;;5.30;94.10;;;;;;5065161;28;20111;-79
2021/11/25 01:53:20;;;;;;;9.18;3.97;;;5.30;94.00;;;;;;5044788;28;20143;-79
2021/11/25 01:55:47;;;;;;;8.57;3.55;;;5.40;94.00;;;;;;5045886;28;20040;-79
2021/11/25 01:58:15;;;;;;;9.90;3.90;;;5.40;94.00;;;;;;5066535;28;20037;-79
2021/11/25 02:00:54;;;;;;;9.55;4.07;;;5.40;94.00;;;;;;5031022;28;20048;-79
2021/11/25 02:03:26;;;;;;;8.93;3.67;;;5.50;94.00;;;;;;5066137;28;20063;-79
2021/11/25 02:05:55;;;;;;;9.77;4.20;;;5.50;94.00;;;;;;5083928;28;20065;-79
2021/11/25 02:08:22;;;;;;;11.13;4.20;;;5.50;93.90;;;;;;5084028;28;20048;-78
2021/11/25 02:10:53;;;;;;;9.52;3.95;;;5.50;93.90;;;;;;5033254;28;20143;-79
2021/11/25 02:13:21;;;;;;;12.35;4.97;;;5.60;93.90;;;;;;5068198;28;20048;-79
2021/11/25 02:15:52;;;;;;;11.15;4.28;;;5.60;93.90;;;;;;5050300;28;20052;-79
2021/11/25 02:18:22;;;;;;;9.45;3.45;;;5.60;93.90;;;;;;5066578;28;20442;-79
2021/11/25 02:20:54;;;;;;;10.15;4.65;;;5.60;93.80;;;;;;5052734;28;20048;-79
2021/11/25 02:23:22;;;;;;;7.32;3.53;;;5.60;93.90;;;;;;5066921;28;20048;-79
2021/11/25 02:25:50;;;;;;;9.55;3.85;;;5.60;93.90;;;;;;5082992;28;20044;-79
2021/11/25 02:28:19;;;;;;;7.20;3.72;;;5.60;93.90;;;;;;5050253;28;20102;-79
2021/11/25 02:30:47;;;;;;;7.15;3.38;;;5.60;93.80;;;;;;5066477;28;20048;-78
2021/11/25 02:33:16;;;;;;;9.93;3.75;;;5.70;93.80;;;;;;5065660;28;20036;-78
2021/11/25 02:35:46;;;;;;;6.68;3.58;;;5.60;93.80;;;;;;5034420;28;20045;-78
2021/11/25 02:38:14;;;;;;;8.70;3.75;;;5.60;93.80;;;;;;5083432;28;20439;-79
2021/11/25 02:40:50;;;;;;;7.10;2.72;;;5.70;93.90;;;;;;5050296;28;20048;-79
2021/11/25 02:43:27;;;;;;;8.27;3.47;;;5.70;93.80;;;;;;5066173;28;20960;-79
2021/11/25 02:45:58;;;;;;;8.68;4.00;;;5.70;93.90;;;;;;5066917;28;20099;-78
2021/11/25 02:48:32;;;;;;;6.40;2.90;;;5.60;93.80;;;;;;5082900;28;20049;-78
2021/11/25 02:51:00;;;;;;;9.60;4.30;;;5.60;93.80;;;;;;5060984;28;20074;-79
2021/11/25 02:53:31;;;;;;;10.32;4.18;;;5.60;93.80;;;;;;5049884;28;20033;-78
2021/11/25 02:56:03;;;;;;;7.95;3.67;;;5.60;93.90;;;;;;5066835;28;20052;-78
2021/11/25 02:58:30;;;;;;;7.53;3.75;;;5.60;93.90;;;;;;5066575;28;20045;-78
2021/11/25 03:01:02;;;;;;;10.10;3.45;;;5.60;93.80;;;;;;5050562;28;20060;-78
2021/11/25 03:03:30;;;;;;;7.72;3.40;;;5.60;93.80;;;;;;5049766;28;20068;-78
2021/11/25 03:05:57;;;;;;;6.43;3.00;;;5.70;93.90;;;;;;5033589;28;20135;-78
2021/11/25 03:08:23;;;;;;;7.13;3.17;;;5.60;93.80;;;;;;5050196;28;20106;-78
2021/11/25 03:11:04;;;;;;;7.85;3.45;;;5.60;93.80;;;;;;5039792;28;20060;-78
2021/11/25 03:13:32;;;;;;;6.80;3.28;;;5.60;93.80;;;;;;5065373;28;20052;-78
2021/11/25 03:15:59;;;;;;;9.15;4.03;;;5.60;93.90;;;;;;5033096;28;20040;-79
2021/11/25 03:18:28;;;;;;;8.63;3.85;;;5.70;93.90;;;;;;5049144;28;20080;-78
2021/11/25 03:20:56;;;;;;;10.25;4.63;;;5.70;93.80;;;;;;5065753;28;20052;-79
2021/11/25 03:23:27;;;;;;;7.15;3.28;;;5.70;93.80;;;;;;5047494;28;20523;-78
2021/11/25 03:25:56;;;;;;;8.98;4.50;;;5.70;93.80;;;;;;5060446;28;20571;-78
2021/11/25 03:28:24;;;;;;;8.00;3.35;;;5.70;93.80;;;;;;5078712;28;20541;-78
2021/11/25 03:30:55;;;;;;;8.52;3.60;;;5.70;93.80;;;;;;5060633;28;20053;-78
2021/11/25 03:33:28;;;;;;;7.75;3.85;;;5.70;93.80;;;;;;5077996;28;20980;-78
2021/11/25 03:35:58;;;;;;;6.75;3.15;;;5.70;93.80;;;;;;5049687;28;20072;-78
2021/11/25 03:38:26;;;;;;;9.07;3.03;;;5.70;93.80;;;;;;5064532;28;20052;-79
2021/11/25 03:40:54;;;;;;;9.75;4.18;;;5.70;93.80;;;;;;5048586;28;20048;-79
2021/11/25 03:43:22;;;;;;;6.95;3.75;;;5.70;93.80;;;;;;5066939;28;20110;-79
2021/11/25 03:45:50;;;;;;;7.45;3.75;;;5.80;93.80;;;;;;5045823;28;20090;-79
2021/11/25 03:48:17;;;;;;;7.60;3.47;;;5.80;93.80;;;;;;5047948;28;20145;-78
2021/11/25 03:50:44;;;;;;;6.38;3.63;;;5.80;93.70;;;;;;5065772;28;20041;-78
2021/11/25 03:53:11;;;;;;;8.77;3.90;;;5.80;93.70;;;;;;5046980;28;20090;-78
2021/11/25 03:55:39;;;;;;;8.02;3.70;;;5.80;93.70;;;;;;5064847;28;20039;-78
2021/11/25 03:58:06;;;;;;;8.05;4.00;;;5.80;93.60;;;;;;5066292;28;20040;-78
2021/11/25 04:00:33;;;;;;;7.22;4.22;;;5.80;93.70;;;;;;5049503;28;20045;-78
2021/11/25 04:03:02;;;;;;;9.27;4.30;;;5.80;93.70;;;;;;5048652;28;20056;-78
2021/11/25 04:05:30;;;;;;;6.80;3.30;;;5.80;93.70;;;;;;5065937;28;20725;-78
2021/11/25 04:07:58;;;;;;;11.73;5.85;;;5.80;93.70;;;;;;5048454;28;20439;-78
2021/11/25 04:10:25;;;;;;;9.40;4.82;;;5.80;93.60;;;;;;5048849;28;20131;-78
2021/11/25 04:12:53;;;;;;;11.60;6.18;;;5.90;93.60;;;;;;5048747;28;20044;-78
2021/11/25 04:15:21;;;;;;;13.13;7.10;;;5.90;93.50;;;;;;5040163;28;20043;-79
2021/11/25 04:17:51;;;;;;;13.65;7.10;;;5.90;93.50;;;;;;5065816;28;20052;-79
2021/11/25 04:20:18;;;;;;;12.93;6.38;;;5.90;93.40;;;;;;5049424;28;20102;-79
2021/11/25 04:22:46;;;;;;;12.10;6.40;;;5.80;93.40;;;;;;5031223;28;20091;-79
2021/11/25 04:25:13;;;;;;;11.50;5.95;;;5.80;93.40;;;;;;5031248;28;20044;-79
2021/11/25 04:27:42;;;;;;;12.48;6.75;;;5.80;93.30;;;;;;5049808;28;20741;-79
2021/11/25 04:35:34;;;;;;;9.45;4.57;;;5.80;93.40;;;;;;5065020;28;20048;-79
2021/11/25 04:38:10;;;;;;;8.85;5.22;;;5.80;93.40;;;;;;5064626;28;20052;-79
2021/11/25 04:40:46;;;;;;;11.68;5.95;;;5.80;93.40;;;;;;5054945;28;20522;-79
2021/11/25 04:43:14;;;;;;;9.40;5.20;;;5.80;93.40;;;;;;5064665;28;20046;-79
2021/11/25 04:45:43;;;;;;;10.48;5.45;;;5.80;93.40;;;;;;5047920;28;20056;-79
2021/11/25 04:48:11;;;;;;;11.98;5.63;;;5.80;93.40;;;;;;5065167;28;20048;-79
2021/11/25 04:50:39;;;;;;;10.45;5.40;;;5.80;93.30;;;;;;5047582;28;20094;-78
2021/11/25 04:53:09;;;;;;;11.38;5.95;;;5.80;93.30;;;;;;5064308;28;20052;-79
2021/11/25 04:55:37;;;;;;;14.27;8.65;;;5.80;93.30;;;;;;5063722;28;20156;-79
2021/11/25 04:58:04;;;;;;;14.50;8.30;;;5.80;93.20;;;;;;5030986;28;20063;-79
2021/11/25 05:00:33;;;;;;;14.50;8.48;;;5.80;93.20;;;;;;5081161;28;20052;-79
2021/11/25 05:03:01;;;;;;;17.63;10.02;;;5.80;93.10;;;;;;5064411;28;20056;-79
2021/11/25 05:05:28;;;;;;;20.95;12.35;;;5.80;93.10;;;;;;5048411;28;20127;-80
2021/11/25 05:07:55;;;;;;;16.67;9.75;;;5.80;93.00;;;;;;5065455;28;20068;-79
2021/11/25 05:10:22;;;;;;;13.52;8.45;;;5.80;93.00;;;;;;5039357;28;20052;-79
2021/11/25 05:12:49;;;;;;;17.67;10.38;;;5.70;93.00;;;;;;5045806;28;20220;-79
2021/11/25 05:15:17;;;;;;;17.10;9.70;;;5.80;93.00;;;;;;5063708;28;20142;-78
2021/11/25 05:17:44;;;;;;;17.80;10.32;;;5.80;93.00;;;;;;5030197;28;20063;-78
2021/11/25 05:20:13;;;;;;;15.02;7.95;;;5.80;93.00;;;;;;5030345;28;20063;-78
2021/11/25 05:22:40;;;;;;;18.50;10.02;;;5.80;93.00;;;;;;5046198;28;20127;-78
2021/11/25 05:25:09;;;;;;;18.95;10.52;;;5.80;93.20;;;;;;5064078;28;20782;-78
2021/11/25 05:27:36;;;;;;;20.13;11.50;;;5.80;92.90;;;;;;5047153;28;20091;-78
2021/11/25 05:30:05;;;;;;;18.52;10.50;;;5.80;92.80;;;;;;5023274;28;20764;-78
2021/11/25 05:32:33;;;;;;;17.35;10.65;;;5.80;92.80;;;;;;5047243;28;20145;-78
2021/11/25 05:35:00;;;;;;;21.00;11.48;;;5.80;92.80;;;;;;5047210;28;20118;-78
2021/11/25 05:37:26;;;;;;;19.95;11.52;;;5.80;92.80;;;;;;5030617;28;20044;-79
2021/11/25 05:39:57;;;;;;;19.83;11.73;;;5.70;92.70;;;;;;5044297;28;20048;-78
2021/11/25 05:42:24;;;;;;;20.60;11.60;;;5.70;92.80;;;;;;5041035;28;20470;-78
2021/11/25 05:44:52;;;;;;;18.70;10.25;;;5.70;92.70;;;;;;5043221;28;20048;-78
2021/11/25 05:47:19;;;;;;;21.38;12.32;;;5.60;92.70;;;;;;5048592;28;20062;-78
2021/11/25 05:49:46;;;;;;;20.05;11.05;;;5.60;92.70;;;;;;5064481;28;20040;-78
2021/11/25 05:52:14;;;;;;;16.13;8.98;;;5.60;92.80;;;;;;5049518;28;20453;-78
2021/11/25 05:54:41;;;;;;;16.27;10.38;;;5.50;92.90;;;;;;5063692;28;20135;-79
2021/11/25 05:57:08;;;;;;;16.02;9.18;;;5.50;92.90;;;;;;5047586;28;20044;-78
2021/11/25 05:59:35;;;;;;;14.27;8.80;;;5.50;92.90;;;;;;5063922;28;20052;-78
2021/11/25 06:02:03;;;;;;;14.35;7.85;;;5.50;92.90;;;;;;5048266;28;20077;-78
2021/11/25 06:04:31;;;;;;;13.52;7.60;;;5.50;93.00;;;;;;5047167;28;20097;-79
2021/11/25 06:06:58;;;;;;;10.10;5.82;;;5.60;93.00;;;;;;5066047;28;20064;-78
2021/11/25 06:09:25;;;;;;;11.85;6.50;;;5.50;93.00;;;;;;5053229;28;20118;-79
2021/11/25 06:11:52;;;;;;;12.38;5.95;;;5.50;93.10;;;;;;5066961;28;20041;-79
2021/11/25 06:14:19;;;;;;;11.25;6.13;;;5.50;93.10;;;;;;5066649;28;20041;-79
2021/11/25 06:16:46;;;;;;;10.45;5.88;;;5.50;93.10;;;;;;5084522;28;20094;-79
2021/11/25 06:19:13;;;;;;;9.88;5.15;;;5.50;93.10;;;;;;5051036;28;20052;-79
2021/11/25 06:21:40;;;;;;;9.43;4.90;;;5.50;93.20;;;;;;5049105;28;20040;-78
2021/11/25 06:24:11;;;;;;;11.85;6.30;;;5.50;93.20;;;;;;5051463;28;20100;-78
2021/11/25 06:26:42;;;;;;;11.38;6.70;;;5.60;93.20;;;;;;5035324;28;20101;-79
2021/11/25 06:29:09;;;;;;;11.30;5.85;;;5.50;93.20;;;;;;5035457;28;20572;-79
2021/11/25 06:31:37;;;;;;;9.60;6.13;;;5.50;93.20;;;;;;5050717;28;20722;-78
2021/11/25 06:34:04;;;;;;;10.77;6.40;;;5.50;93.20;;;;;;5050142;28;20522;-79
2021/11/25 06:36:32;;;;;;;11.68;6.55;;;5.50;93.20;;;;;;5050555;28;20581;-79
2021/11/25 06:38:59;;;;;;;11.85;6.72;;;5.50;93.20;;;;;;5051290;28;21214;-79
2021/11/25 06:41:26;;;;;;;13.27;6.93;;;5.50;93.20;;;;;;5042036;28;20112;-79
2021/11/25 06:43:53;;;;;;;10.40;5.45;;;5.50;93.20;;;;;;5066398;28;20133;-79
2021/11/25 06:46:20;;;;;;;12.88;6.72;;;5.50;93.20;;;;;;5034799;28;20032;-79
2021/11/25 06:48:47;;;;;;;15.25;7.85;;;5.50;93.20;;;;;;5068787;28;20049;-79
2021/11/25 06:51:14;;;;;;;11.20;7.22;;;5.50;93.20;;;;;;5066277;28;20135;-78
2021/11/25 06:53:41;;;;;;;12.50;7.40;;;5.50;93.20;;;;;;5050204;28;20484;-78
2021/11/25 06:56:09;;;;;;;14.43;8.23;;;5.50;93.20;;;;;;5050620;28;20051;-79
2021/11/25 06:58:36;;;;;;;18.52;9.30;;;5.50;93.20;;;;;;5066878;28;20052;-79
2021/11/25 07:01:06;;;;;;;14.88;8.77;;;5.50;93.10;;;;;;5050318;28;20059;-78
2021/11/25 07:03:35;;;;;;;14.27;7.38;;;5.50;93.10;;;;;;5025496;28;20056;-78
2021/11/25 07:06:03;;;;;;;16.17;8.88;;;5.50;93.10;;;;;;5050022;28;20560;-78
2021/11/25 07:08:30;;;;;;;19.85;11.35;;;5.50;93.10;;;;;;5066506;28;20102;-79
2021/11/25 07:10:58;;;;;;;18.35;10.18;;;5.50;93.00;;;;;;5038572;28;21289;-79
2021/11/25 07:13:26;;;;;;;17.42;9.48;;;5.50;93.00;;;;;;5048955;28;20052;-79
2021/11/25 07:15:55;;;;;;;20.05;10.25;;;5.40;93.00;;;;;;5066685;28;20037;-78
2021/11/25 07:18:22;;;;;;;14.88;8.65;;;5.50;93.00;;;;;;5049748;28;20049;-79
2021/11/25 07:20:49;;;;;;;17.10;10.32;;;5.50;93.00;;;;;;5049190;28;20143;-78
2021/11/25 07:23:16;;;;;;;17.38;9.60;;;5.50;93.00;;;;;;5048739;28;20127;-78
2021/11/25 07:25:43;;;;;;;17.88;10.52;;;5.50;93.00;;;;;;5033403;28;20614;-78
2021/11/25 07:28:10;;;;;;;15.90;9.70;;;5.50;93.00;;;;;;5049273;28;20492;-78
2021/11/25 07:30:37;;;;;;;17.70;10.38;;;5.50;93.00;;;;;;5050054;28;20051;-78
2021/11/25 07:33:04;;;;;;;19.73;9.85;;;5.50;93.00;;;;;;5065261;28;20101;-78
2021/11/25 07:35:32;;;;;;;15.30;9.85;;;5.50;92.90;;;;;;5020973;28;20052;-79
2021/11/25 07:38:00;;;;;;;15.25;8.80;;;5.50;92.90;;;;;;5043102;28;20110;-78
2021/11/25 07:40:27;;;;;;;13.20;8.05;;;5.50;92.90;;;;;;5046114;28;20711;-78
2021/11/25 07:42:54;;;;;;;12.15;7.60;;;5.50;92.90;;;;;;5047192;28;20104;-79
2021/11/25 07:45:26;;;;;;;12.85;7.25;;;5.60;93.00;;;;;;5064845;28;20041;-78
2021/11/25 07:47:53;;;;;;;14.38;8.68;;;5.60;93.00;;;;;;5032740;28;20060;-78
2021/11/25 07:50:25;;;;;;;17.52;9.93;;;5.60;92.90;;;;;;5072423;28;20101;-78
2021/11/25 07:52:53;;;;;;;14.27;8.55;;;5.60;92.80;;;;;;5049483;28;20045;-76
2021/11/25 07:55:20;;;;;;;14.55;8.02;;;5.60;92.80;;;;;;5049760;28;20082;-80
2021/11/25 07:57:49;;;;;;;12.32;7.68;;;5.70;92.80;;;;;;5065739;28;20044;-80
2021/11/25 08:00:21;;;;;;;14.45;9.35;;;5.70;92.80;;;;;;5065444;28;20862;-80
2021/11/25 08:02:51;;;;;;;15.38;10.15;;;5.70;92.80;;;;;;5064263;28;20500;-79
2021/11/25 08:05:19;;;;;;;19.05;10.90;;;5.70;92.70;;;;;;5033686;28;20040;-79
2021/11/25 08:07:46;;;;;;;16.92;9.88;;;5.70;92.60;;;;;;5023559;28;20078;-78
2021/11/25 08:10:14;;;;;;;13.93;8.20;;;5.80;92.70;;;;;;5046143;28;20052;-78
2021/11/25 08:12:42;;;;;;;13.93;7.75;;;5.80;92.70;;;;;;5041079;28;20067;-78
2021/11/25 08:15:11;;;;;;;15.23;8.68;;;5.80;92.60;;;;;;5056143;28;20104;-78
2021/11/25 08:17:38;;;;;;;15.43;8.35;;;5.80;92.60;;;;;;5048313;28;20064;-79
2021/11/25 08:20:07;;;;;;;14.07;7.68;;;5.90;92.60;;;;;;5046343;28;20060;-76
2021/11/25 08:22:34;;;;;;;14.35;9.00;;;5.90;92.60;;;;;;5046904;28;20136;-76
2021/11/25 08:25:05;;;;;;;16.17;9.40;;;5.90;92.50;;;;;;5047218;28;20055;-77
2021/11/25 08:27:32;;;;;;;15.32;8.73;;;5.90;92.50;;;;;;5061446;28;20052;-76
2021/11/25 08:29:59;;;;;;;12.48;7.97;;;6.00;92.50;;;;;;5060888;28;20072;-76
2021/11/25 08:32:26;;;;;;;12.05;6.82;;;6.00;92.50;;;;;;5045662;28;20095;-78
2021/11/25 08:34:54;;;;;;;14.40;7.88;;;6.00;92.50;;;;;;5031861;28;20076;-77
2021/11/25 08:37:24;;;;;;;13.00;7.68;;;6.00;92.50;;;;;;5021439;28;20041;-77
2021/11/25 08:39:51;;;;;;;11.38;7.13;;;6.10;92.50;;;;;;5047011;28;20064;-77
2021/11/25 08:42:18;;;;;;;12.57;7.47;;;6.10;92.50;;;;;;5023114;28;20184;-77
2021/11/25 08:44:45;;;;;;;10.98;6.30;;;6.10;92.40;;;;;;5046287;28;20068;-76
2021/11/25 08:47:13;;;;;;;11.55;6.72;;;6.10;92.40;;;;;;5047585;28;20041;-77
2021/11/25 08:49:40;;;;;;;12.73;7.47;;;6.20;92.40;;;;;;5072977;28;20052;-79
2021/11/25 08:52:07;;;;;;;14.35;7.70;;;6.20;92.30;;;;;;5049008;28;20062;-79
2021/11/25 08:54:35;;;;;;;13.82;8.43;;;6.20;92.30;;;;;;5047294;28;20067;-79
2021/11/25 08:57:03;;;;;;;18.00;11.60;;;6.20;92.30;;;;;;5064767;28;20056;-79
2021/11/25 08:59:30;;;;;;;18.75;11.20;;;6.10;92.10;;;;;;5064439;28;20437;-79
2021/11/25 09:01:57;;;;;;;18.83;10.75;;;6.20;92.30;;;;;;5047308;28;20072;-79
2021/11/25 09:04:27;;;;;;;19.95;11.38;;;6.20;92.20;;;;;;5047478;28;20744;-79
2021/11/25 09:06:54;;;;;;;17.05;10.85;;;6.20;92.20;;;;;;5048332;28;20710;-79
2021/11/25 09:09:22;;;;;;;20.75;12.93;;;6.20;92.10;;;;;;5047506;28;20075;-79
2021/11/25 09:11:50;;;;;;;20.38;10.55;;;6.30;92.10;;;;;;5063611;28;20047;-79
2021/11/25 09:14:17;;;;;;;16.45;9.52;;;6.30;92.10;;;;;;5064714;28;20075;-79
2021/11/25 09:16:44;;;;;;;18.63;10.50;;;6.30;92.10;;;;;;5029094;28;20065;-79
2021/11/25 09:19:11;;;;;;;14.52;8.82;;;6.40;92.10;;;;;;5065598;28;20075;-79
2021/11/25 09:21:38;;;;;;;13.70;8.85;;;6.40;92.10;;;;;;5047412;28;20544;-79
2021/11/25 09:24:06;;;;;;;16.58;9.82;;;6.50;92.00;;;;;;5031078;28;20076;-79
2021/11/25 09:26:35;;;;;;;17.83;10.38;;;6.50;92.00;;;;;;5039350;28;20685;-81
2021/11/25 09:29:07;;;;;;;21.15;12.35;;;6.60;91.90;;;;;;5096617;28;20127;-79
2021/11/25 09:31:35;;;;;;;19.92;12.02;;;6.60;91.80;;;;;;5060595;28;20147;-79
2021/11/25 09:34:04;;;;;;;22.60;13.77;;;6.60;91.80;;;;;;5059377;28;20893;-79
2021/11/25 09:36:32;;;;;;;21.67;13.30;;;6.60;91.70;;;;;;5049204;28;20561;-80
2021/11/25 09:38:59;;;;;;;22.63;13.90;;;6.60;91.70;;;;;;5077221;28;20534;-79
2021/11/25 09:41:27;;;;;;;20.17;12.43;;;6.60;91.70;;;;;;5058642;28;20052;-80
2021/11/25 09:43:54;;;;;;;22.00;12.82;;;6.60;91.70;;;;;;5041393;28;20145;-79
2021/11/25 09:46:23;;;;;;;22.60;13.98;;;6.50;91.80;;;;;;5066735;28;20056;-79
2021/11/25 09:48:52;;;;;;;23.90;15.50;;;6.50;91.60;;;;;;5042859;28;20526;-79
2021/11/25 09:51:22;;;;;;;24.23;14.75;;;6.50;91.70;;;;;;5070950;28;20055;-80
2021/11/25 09:53:50;;;;;;;23.80;15.48;;;6.40;91.70;;;;;;5035323;28;20045;-79
2021/11/25 09:56:17;;;;;;;26.33;17.08;;;6.30;91.70;;;;;;5050821;28;20040;-79
2021/11/25 09:58:45;;;;;;;29.08;19.13;;;6.20;91.70;;;;;;5024073;28;20044;-80
2021/11/25 10:01:17;;;;;;;30.50;19.50;;;6.10;91.70;;;;;;5068433;28;20794;-78
2021/11/25 10:03:49;;;;;;;29.17;18.25;;;5.90;91.80;;;;;;5065148;28;20051;-80
2021/11/25 10:06:22;;;;;;;27.00;17.23;;;5.90;91.90;;;;;;5062783;28;20029;-80
2021/11/25 10:08:52;;;;;;;24.52;15.82;;;5.80;92.10;;;;;;5065567;28;20368;-80
2021/11/25 10:11:24;;;;;;;22.17;14.70;;;5.80;92.10;;;;;;5047028;28;20067;-79
2021/11/25 10:13:57;;;;;;;26.55;15.57;;;5.80;92.10;;;;;;5062019;28;20049;-81
2021/11/25 10:16:35;;;;;;;26.40;17.33;;;5.90;92.20;;;;;;5062830;28;20900;-80
2021/11/25 10:19:17;;;;;;;25.60;15.55;;;5.80;92.10;;;;;;5047941;28;20045;-79
2021/11/25 10:21:56;;;;;;;25.33;16.67;;;5.80;92.20;;;;;;5067668;28;20389;-80
2021/11/25 10:24:34;;;;;;;26.17;16.05;;;5.80;92.20;;;;;;5066776;28;20071;-78
2021/11/25 10:27:25;;;;;;;23.42;16.00;;;5.80;92.20;;;;;;5067303;28;20479;-81
2021/11/25 10:30:19;;;;;;;20.70;13.50;;;5.90;92.30;;;;;;5066473;28;20075;-82
2021/11/25 10:33:00;;;;;;;20.67;13.77;;;5.90;92.20;;;;;;5065093;28;20036;-81
2021/11/25 10:35:41;;;;;;;21.35;12.93;;;5.90;92.20;;;;;;5067327;28;20044;-81
2021/11/25 10:40:45;;;;;;;20.33;12.52;;;6.00;92.30;;;;;;5067317;28;20531;-80
2021/11/25 10:43:22;;;;;;;22.50;13.57;;;6.00;92.30;;;;;;5065670;28;20044;-81
2021/11/25 10:45:53;;;;;;;18.23;13.07;;;6.00;92.30;;;;;;5066983;28;20045;-81
2021/11/25 10:48:32;;;;;;;24.10;15.20;;;6.00;92.30;;;;;;5065793;28;20130;-80
2021/11/25 10:50:59;;;;;;;27.50;14.98;;;6.00;92.30;;;;;;5065266;28;20149;-81
2021/11/25 10:53:27;;;;;;;28.17;18.10;;;5.90;92.40;;;;;;5067406;28;20033;-81
2021/11/25 10:56:04;;;;;;;27.35;17.63;;;5.90;92.30;;;;;;5067905;28;20044;-80
2021/11/25 10:58:51;;;;;;;30.50;18.45;;;5.90;92.40;;;;;;5066367;28;20090;-81
2021/11/25 11:01:36;;;;;;;31.98;19.02;;;5.80;92.50;;;;;;5057087;28;20132;-80
2021/11/25 11:04:06;;;;;;;28.05;18.15;;;5.80;92.60;;;;;;5062457;28;20611;-80
2021/11/25 11:06:36;;;;;;;27.80;16.95;;;5.80;92.70;;;;;;5062932;28;20579;-80
2021/11/25 11:09:06;;;;;;;25.10;16.42;;;5.80;92.70;;;;;;5063924;28;20051;-80
2021/11/25 11:11:37;;;;;;;30.88;18.10;;;5.80;92.70;;;;;;5065013;28;20056;-80
2021/11/25 11:14:18;;;;;;;31.42;18.75;;;5.80;92.80;;;;;;5067536;28;20052;-79
2021/11/25 11:17:15;;;;;;;34.45;20.73;;;5.80;92.80;;;;;;5065771;28;20056;-79
2021/11/25 11:19:34;;;;;;;30.05;19.23;;;5.90;92.80;;;;;;5063166;28;20048;-79
2021/11/25 11:22:14;;;;;;;28.83;18.98;;;6.00;92.80;;;;;;5030033;28;20044;-80
2021/11/25 11:24:43;;;;;;;27.88;15.45;;;6.00;92.80;;;;;;5045733;28;20068;-80
2021/11/25 11:27:10;;;;;;;29.75;17.40;;;6.10;92.80;;;;;;5044531;28;20047;-81
2021/11/25 11:29:39;;;;;;;28.70;16.23;;;6.20;92.70;;;;;;5044889;28;20061;-80
2021/11/25 11:32:09;;;;;;;30.65;18.25;;;6.20;92.80;;;;;;5047522;28;20063;-80
2021/11/25 11:34:39;;;;;;;32.47;19.17;;;6.20;92.70;;;;;;5049063;28;20050;-80
2021/11/25 11:37:12;;;;;;;30.70;18.17;;;6.20;92.80;;;;;;5066291;28;20045;-80
2021/11/25 11:39:39;;;;;;;37.40;21.38;;;6.30;92.80;;;;;;5049454;28;20124;-80
2021/11/25 11:42:07;;;;;;;34.13;20.83;;;6.30;92.80;;;;;;5047314;28;20053;-80
2021/11/25 11:44:35;;;;;;;32.00;19.98;;;6.30;92.80;;;;;;5047572;28;20061;-80
2021/11/25 11:47:07;;;;;;;32.53;19.60;;;6.40;92.80;;;;;;5080532;28;21364;-81
2021/11/25 11:49:43;;;;;;;33.53;19.27;;;6.40;92.80;;;;;;5063503;28;20045;-80
2021/11/25 11:52:14;;;;;;;40.72;22.42;;;6.40;92.90;;;;;;5064702;28;20313;-78
2021/11/25 11:54:54;;;;;;;37.42;22.58;;;6.40;92.90;;;;;;5063854;28;20522;-79
2021/11/25 11:57:27;;;;;;;30.63;19.20;;;6.40;92.90;;;;;;5064618;28;20056;-80
2021/11/25 12:00:00;;;;;;;30.23;17.25;;;6.50;92.90;;;;;;5064323;28;20045;-80
2021/11/25 12:02:51;;;;;;;39.47;20.33;;;6.50;92.90;;;;;;5043246;28;20275;-80
2021/11/25 12:05:46;;;;;;;39.67;22.20;;;6.60;92.90;;;;;;5063642;28;20033;-79
2021/11/25 12:08:19;;;;;;;35.13;19.95;;;6.60;92.90;;;;;;5064844;28;20094;-80
2021/11/25 12:10:55;;;;;;;29.67;17.70;;;6.60;92.90;;;;;;5081074;28;20052;-80
2021/11/25 12:13:25;;;;;;;39.22;20.13;;;6.70;92.90;;;;;;5066087;28;20040;-81
2021/11/25 12:16:20;;;;;;;38.22;20.95;;;6.70;92.90;;;;;;5046372;28;20515;-82
2021/11/25 12:19:00;;;;;;;35.17;18.42;;;6.80;92.90;;;;;;5065307;28;20431;-80
2021/11/25 12:21:31;;;;;;;35.70;18.00;;;6.90;92.90;;;;;;5065657;28;20072;-77
2021/11/25 12:24:22;;;;;;;32.50;18.05;;;6.90;92.80;;;;;;5064397;28;20055;-78
2021/11/25 12:27:24;;;;;;;28.70;16.63;;;6.90;92.80;;;;;;5062998;28;20090;-79
2021/11/25 12:30:27;;;;;;;33.15;19.17;;;6.90;92.80;;;;;;5032460;28;20062;-78
2021/11/25 12:32:56;;;;;;;31.65;17.80;;;7.00;92.90;;;;;;5065983;28;20568;-79
2021/11/25 12:35:38;;;;;;;27.63;17.05;;;7.00;92.90;;;;;;5048238;28;20041;-78
2021/11/25 12:38:15;;;;;;;28.00;16.02;;;7.00;92.90;;;;;;5057250;28;20063;-79
2021/11/25 12:40:56;;;;;;;32.25;17.77;;;7.00;92.90;;;;;;5065332;28;20512;-76
2021/11/25 12:43:27;;;;;;;37.30;19.98;;;7.00;92.90;;;;;;5063696;28;20075;-78
2021/11/25 12:46:11;;;;;;;27.50;15.18;;;7.00;92.90;;;;;;5064109;28;20443;-80
2021/11/25 12:48:49;;;;;;;26.50;15.40;;;7.00;92.90;;;;;;5064794;28;20143;-80
2021/11/25 12:51:18;;;;;;;32.15;16.38;;;7.00;93.00;;;;;;5064968;28;20048;-80
2021/11/25 12:53:47;;;;;;;33.15;17.42;;;7.10;93.00;;;;;;5056289;28;20099;-80
2021/11/25 12:56:17;;;;;;;33.97;17.58;;;7.10;92.90;;;;;;5054325;28;20044;-81
2021/11/25 12:58:44;;;;;;;30.05;17.67;;;7.20;92.90;;;;;;5081621;28;20041;-80
2021/11/25 13:01:15;;;;;;;26.65;14.15;;;7.30;92.90;;;;;;5073458;28;20032;-78
2021/11/25 13:03:42;;;;;;;27.98;14.07;;;7.30;92.90;;;;;;5073418;28;20445;-79
2021/11/25 13:06:10;;;;;;;24.35;13.07;;;7.40;92.90;;;;;;5070225;28;20052;-78
2021/11/25 13:08:43;;;;;;;24.77;12.10;;;7.50;92.90;;;;;;5063718;28;20064;-78